sensor_id;sensor_type;location;lat;lon;timestamp;pressure;altitude;pressure_sealevel;temperature;humidity
4767;BME280;2397;53.576;9.746;2024-01-11T00:01:46;103442.03;;;-2.33;100.00
4767;BME280;2397;53.576;9.746;2024-01-11T00:04:13;103429.97;;;-2.37;100.00
4767;BME280;2397;53.576;9.746;2024-01-11T00:06:44;103423.94;;;-2.42;100.00
4767;BME280;2397;53.576;9.746;2024-01-11T00:09:11;103417.03;;;-2.40;100.00
4767;BME280;2397;53.576;9.746;2024-01-11T00:11:38;103413.63;;;-2.46;100.00
4767;BME280;2397;53.576;9.746;2024-01-11T00:14:04;103417.94;;;-2.53;100.00
4767;BME280;2397;53.576;9.746;2024-01-11T00:16:31;103399.88;;;-2.54;100.00
4767;BME280;2397;53.576;9.746;2024-01-11T00:18:57;103396.41;;;-2.50;100.00
4767;BME280;2397;53.576;9.746;2024-01-11T00:21:24;103392.94;;;-2.52;100.00
4767;BME280;2397;53.576;9.746;2024-01-11T00:23:51;103378.31;;;-2.56;100.00
4767;BME280;2397;53.576;9.746;2024-01-11T00:26:17;103380.03;;;-2.55;100.00
4767;BME280;2397;53.576;9.746;2024-01-11T00:28:44;103381.78;;;-2.60;100.00
4767;BME280;2397;53.576;9.746;2024-01-11T00:31:11;103391.25;;;-2.61;100.00
4767;BME280;2397;53.576;9.746;2024-01-11T00:33:39;103379.19;;;-2.57;100.00
4767;BME280;2397;53.576;9.746;2024-01-11T00:36:06;103369.69;;;-2.55;100.00
4767;BME280;2397;53.576;9.746;2024-01-11T00:38:32;103367.97;;;-2.58;100.00
4767;BME280;2397;53.576;9.746;2024-01-11T00:40:59;103360.22;;;-2.59;100.00
4767;BME280;2397;53.576;9.746;2024-01-11T00:43:25;103361.09;;;-2.59;100.00
4767;BME280;2397;53.576;9.746;2024-01-11T00:45:52;103361.09;;;-2.60;100.00
4767;BME280;2397;53.576;9.746;2024-01-11T00:48:18;103361.97;;;-2.61;100.00
4767;BME280;2397;53.576;9.746;2024-01-11T00:50:45;103355.03;;;-2.58;100.00
4767;BME280;2397;53.576;9.746;2024-01-11T00:53:12;103359.34;;;-2.54;100.00
4767;BME280;2397;53.576;9.746;2024-01-11T00:55:41;103367.09;;;-2.57;100.00
4767;BME280;2397;53.576;9.746;2024-01-11T00:58:07;103355.91;;;-2.57;100.00
4767;BME280;2397;53.576;9.746;2024-01-11T01:00:34;103355.88;;;-2.51;100.00
4767;BME280;2397;53.576;9.746;2024-01-11T01:03:00;103341.25;;;-2.54;100.00
4767;BME280;2397;53.576;9.746;2024-01-11T01:05:27;103340.41;;;-2.59;100.00
4767;BME280;2397;53.576;9.746;2024-01-11T01:07:54;103336.94;;;-2.53;100.00
4767;BME280;2397;53.576;9.746;2024-01-11T01:10:21;103317.97;;;-2.46;100.00
4767;BME280;2397;53.576;9.746;2024-01-11T01:12:47;103322.31;;;-2.57;100.00
4767;BME280;2397;53.576;9.746;2024-01-11T01:15:14;103337.84;;;-2.66;100.00
4767;BME280;2397;53.576;9.746;2024-01-11T01:17:41;103341.28;;;-2.61;100.00
4767;BME280;2397;53.576;9.746;2024-01-11T01:20:08;103324.91;;;-2.57;100.00
4767;BME280;2397;53.576;9.746;2024-01-11T01:22:35;103325.72;;;-2.55;100.00
4767;BME280;2397;53.576;9.746;2024-01-11T01:25:02;103320.56;;;-2.52;100.00
4767;BME280;2397;53.576;9.746;2024-01-11T01:27:29;103317.97;;;-2.55;100.00
4767;BME280;2397;53.576;9.746;2024-01-11T01:29:55;103317.09;;;-2.51;100.00
4767;BME280;2397;53.576;9.746;2024-01-11T01:32:22;103315.38;;;-2.51;100.00
4767;BME280;2397;53.576;9.746;2024-01-11T01:34:49;103324.00;;;-2.50;100.00
4767;BME280;2397;53.576;9.746;2024-01-11T01:37:15;103326.59;;;-2.49;100.00
4767;BME280;2397;53.576;9.746;2024-01-11T01:39:42;103323.16;;;-2.55;100.00
4767;BME280;2397;53.576;9.746;2024-01-11T01:42:09;103327.44;;;-2.48;100.00
4767;BME280;2397;53.576;9.746;2024-01-11T01:44:35;103329.16;;;-2.46;100.00
4767;BME280;2397;53.576;9.746;2024-01-11T01:47:02;103310.19;;;-2.45;100.00
4767;BME280;2397;53.576;9.746;2024-01-11T01:49:31;103302.44;;;-2.43;100.00
4767;BME280;2397;53.576;9.746;2024-01-11T01:51:58;103317.06;;;-2.39;100.00
4767;BME280;2397;53.576;9.746;2024-01-11T01:54:25;103318.78;;;-2.38;100.00
4767;BME280;2397;53.576;9.746;2024-01-11T01:56:53;103308.41;;;-2.32;100.00
4767;BME280;2397;53.576;9.746;2024-01-11T01:59:21;103314.44;;;-2.33;100.00
4767;BME280;2397;53.576;9.746;2024-01-11T02:01:47;103313.59;;;-2.32;100.00
4767;BME280;2397;53.576;9.746;2024-01-11T02:04:14;103328.25;;;-2.33;100.00
4767;BME280;2397;53.576;9.746;2024-01-11T02:06:44;103347.19;;;-2.31;100.00
4767;BME280;2397;53.576;9.746;2024-01-11T02:09:12;103351.50;;;-2.31;100.00
4767;BME280;2397;53.576;9.746;2024-01-11T02:11:41;103354.94;;;-2.26;100.00
4767;BME280;2397;53.576;9.746;2024-01-11T02:14:08;103371.31;;;-2.27;100.00
4767;BME280;2397;53.576;9.746;2024-01-11T02:16:35;103363.56;;;-2.24;100.00
4767;BME280;2397;53.576;9.746;2024-01-11T02:19:02;103350.56;;;-2.20;100.00
4767;BME280;2397;53.576;9.746;2024-01-11T02:21:30;103352.34;;;-2.26;100.00
4767;BME280;2397;53.576;9.746;2024-01-11T02:24:03;103348.91;;;-2.27;100.00
4767;BME280;2397;53.576;9.746;2024-01-11T02:26:30;103351.47;;;-2.25;100.00
4767;BME280;2397;53.576;9.746;2024-01-11T02:28:56;103352.31;;;-2.17;100.00
4767;BME280;2397;53.576;9.746;2024-01-11T02:31:24;103366.97;;;-2.22;100.00
4767;BME280;2397;53.576;9.746;2024-01-11T02:33:54;103363.50;;;-2.20;100.00
4767;BME280;2397;53.576;9.746;2024-01-11T02:36:21;103342.84;;;-2.23;100.00
4767;BME280;2397;53.576;9.746;2024-01-11T02:38:49;103349.75;;;-2.29;100.00
4767;BME280;2397;53.576;9.746;2024-01-11T02:41:18;103361.84;;;-2.27;100.00
4767;BME280;2397;53.576;9.746;2024-01-11T02:43:48;103357.53;;;-2.31;100.00
4767;BME280;2397;53.576;9.746;2024-01-11T02:46:15;103368.72;;;-2.24;100.00
4767;BME280;2397;53.576;9.746;2024-01-11T02:48:43;103366.13;;;-2.23;100.00
4767;BME280;2397;53.576;9.746;2024-01-11T02:51:09;103361.81;;;-2.24;100.00
4767;BME280;2397;53.576;9.746;2024-01-11T02:53:36;103345.44;;;-2.26;100.00
4767;BME280;2397;53.576;9.746;2024-01-11T02:56:03;103342.88;;;-2.24;100.00
4767;BME280;2397;53.576;9.746;2024-01-11T02:58:30;103336.81;;;-2.20;100.00
4767;BME280;2397;53.576;9.746;2024-01-11T03:00:56;103344.50;;;-2.14;100.00
4767;BME280;2397;53.576;9.746;2024-01-11T03:03:23;103340.22;;;-2.14;100.00
4767;BME280;2397;53.576;9.746;2024-01-11T03:05:49;103350.56;;;-2.14;100.00
4767;BME280;2397;53.576;9.746;2024-01-11T03:08:16;103355.75;;;-2.20;100.00
4767;BME280;2397;53.576;9.746;2024-01-11T03:10:43;103347.09;;;-2.14;100.00
4767;BME280;2397;53.576;9.746;2024-01-11T03:13:09;103343.59;;;-2.03;100.00
4767;BME280;2397;53.576;9.746;2024-01-11T03:15:36;103354.84;;;-2.05;100.00
4767;BME280;2397;53.576;9.746;2024-01-11T03:18:02;103354.81;;;-2.02;100.00
4767;BME280;2397;53.576;9.746;2024-01-11T03:20:30;103349.66;;;-2.05;100.00
4767;BME280;2397;53.576;9.746;2024-01-11T03:22:56;103360.91;;;-2.11;100.00
4767;BME280;2397;53.576;9.746;2024-01-11T03:25:23;103343.69;;;-2.15;100.00
4767;BME280;2397;53.576;9.746;2024-01-11T03:27:50;103349.72;;;-2.17;100.00
4767;BME280;2397;53.576;9.746;2024-01-11T03:30:16;103335.88;;;-2.10;100.00
4767;BME280;2397;53.576;9.746;2024-01-11T03:32:43;103351.38;;;-2.07;100.00
4767;BME280;2397;53.576;9.746;2024-01-11T03:35:10;103354.03;;;-2.13;100.00
4767;BME280;2397;53.576;9.746;2024-01-11T03:37:37;103348.84;;;-2.16;100.00
4767;BME280;2397;53.576;9.746;2024-01-11T03:40:04;103353.97;;;-2.09;100.00
4767;BME280;2397;53.576;9.746;2024-01-11T03:42:31;103357.44;;;-2.08;100.00
4767;BME280;2397;53.576;9.746;2024-01-11T03:44:57;103369.47;;;-2.04;100.00
4767;BME280;2397;53.576;9.746;2024-01-11T03:47:24;103387.59;;;-2.01;100.00
4767;BME280;2397;53.576;9.746;2024-01-11T03:49:51;103385.81;;;-1.90;100.00
4767;BME280;2397;53.576;9.746;2024-01-11T03:52:17;103385.81;;;-1.90;100.00
4767;BME280;2397;53.576;9.746;2024-01-11T03:54:44;103388.38;;;-1.90;100.00
4767;BME280;2397;53.576;9.746;2024-01-11T03:57:11;103377.22;;;-1.95;100.00
4767;BME280;2397;53.576;9.746;2024-01-11T03:59:37;103372.88;;;-1.98;100.00
4767;BME280;2397;53.576;9.746;2024-01-11T04:02:04;103367.72;;;-1.99;100.00
4767;BME280;2397;53.576;9.746;2024-01-11T04:04:31;103358.25;;;-2.00;100.00
4767;BME280;2397;53.576;9.746;2024-01-11T04:06:57;103340.16;;;-2.05;100.00
4767;BME280;2397;53.576;9.746;2024-01-11T04:09:24;103333.25;;;-2.04;100.00
4767;BME280;2397;53.576;9.746;2024-01-11T04:11:51;103344.47;;;-2.02;100.00
4767;BME280;2397;53.576;9.746;2024-01-11T04:14:18;103330.56;;;-1.86;100.00
4767;BME280;2397;53.576;9.746;2024-01-11T04:16:44;103328.00;;;-1.94;100.00
4767;BME280;2397;53.576;9.746;2024-01-11T04:19:14;103320.28;;;-1.95;100.00
4767;BME280;2397;53.576;9.746;2024-01-11T04:21:42;103312.56;;;-2.03;100.00
4767;BME280;2397;53.576;9.746;2024-01-11T04:24:08;103298.75;;;-2.05;100.00
4767;BME280;2397;53.576;9.746;2024-01-11T04:26:35;103308.25;;;-2.05;100.00
4767;BME280;2397;53.576;9.746;2024-01-11T04:29:02;103306.50;;;-2.00;100.00
4767;BME280;2397;53.576;9.746;2024-01-11T04:31:29;103297.91;;;-2.05;100.00
4767;BME280;2397;53.576;9.746;2024-01-11T04:33:55;103287.56;;;-2.05;100.00
4767;BME280;2397;53.576;9.746;2024-01-11T04:36:22;103296.16;;;-2.03;100.00
4767;BME280;2397;53.576;9.746;2024-01-11T04:38:49;103284.09;;;-2.01;100.00
4767;BME280;2397;53.576;9.746;2024-01-11T04:41:15;103271.97;;;-1.99;100.00
4767;BME280;2397;53.576;9.746;2024-01-11T04:43:43;103263.41;;;-2.03;100.00
4767;BME280;2397;53.576;9.746;2024-01-11T04:46:16;103273.75;;;-2.07;100.00
4767;BME280;2397;53.576;9.746;2024-01-11T04:48:43;103284.97;;;-2.02;100.00
4767;BME280;2397;53.576;9.746;2024-01-11T04:51:11;103274.63;;;-2.05;100.00
4767;BME280;2397;53.576;9.746;2024-01-11T04:53:39;103271.16;;;-2.06;100.00
4767;BME280;2397;53.576;9.746;2024-01-11T04:56:07;103262.53;;;-2.03;100.00
4767;BME280;2397;53.576;9.746;2024-01-11T04:58:35;103241.00;;;-2.05;100.00
4767;BME280;2397;53.576;9.746;2024-01-11T05:01:01;103236.63;;;-2.00;100.00
4767;BME280;2397;53.576;9.746;2024-01-11T05:03:28;103246.97;;;-1.99;100.00
4767;BME280;2397;53.576;9.746;2024-01-11T05:05:55;103274.56;;;-1.99;100.00
4767;BME280;2397;53.576;9.746;2024-01-11T05:08:22;103296.09;;;-1.91;100.00
4767;BME280;2397;53.576;9.746;2024-01-11T05:10:49;103312.38;;;-1.76;100.00
4767;BME280;2397;53.576;9.746;2024-01-11T05:13:17;103291.66;;;-1.77;100.00
4767;BME280;2397;53.576;9.746;2024-01-11T05:15:44;103289.91;;;-1.71;100.00
4767;BME280;2397;53.576;9.746;2024-01-11T05:18:12;103288.13;;;-1.66;100.00
4767;BME280;2397;53.576;9.746;2024-01-11T05:20:39;103289.94;;;-1.74;100.00
4767;BME280;2397;53.576;9.746;2024-01-11T05:23:05;103283.84;;;-1.65;100.00
4767;BME280;2397;53.576;9.746;2024-01-11T05:25:32;103285.53;;;-1.64;100.00
4767;BME280;2397;53.576;9.746;2024-01-11T05:28:03;103277.88;;;-1.75;100.00
4767;BME280;2397;53.576;9.746;2024-01-11T05:30:30;103288.25;;;-1.78;100.00
4767;BME280;2397;53.576;9.746;2024-01-11T05:32:57;103296.00;;;-1.76;100.00
4767;BME280;2397;53.576;9.746;2024-01-11T05:35:25;103292.53;;;-1.74;100.00
4767;BME280;2397;53.576;9.746;2024-01-11T05:37:54;103302.88;;;-1.72;100.00
4767;BME280;2397;53.576;9.746;2024-01-11T05:40:23;103312.31;;;-1.67;100.00
4767;BME280;2397;53.576;9.746;2024-01-11T05:42:50;103313.13;;;-1.60;100.00
4767;BME280;2397;53.576;9.746;2024-01-11T05:45:16;103304.44;;;-1.53;100.00
4767;BME280;2397;53.576;9.746;2024-01-11T05:47:47;103301.84;;;-1.50;100.00
4767;BME280;2397;53.576;9.746;2024-01-11T05:50:14;103290.69;;;-1.61;100.00
4767;BME280;2397;53.576;9.746;2024-01-11T05:52:41;103281.19;;;-1.61;100.00
4767;BME280;2397;53.576;9.746;2024-01-11T05:55:09;103275.97;;;-1.58;100.00
4767;BME280;2397;53.576;9.746;2024-01-11T05:57:35;103266.53;;;-1.62;100.00
4767;BME280;2397;53.576;9.746;2024-01-11T06:00:03;103268.19;;;-1.56;100.00
4767;BME280;2397;53.576;9.746;2024-01-11T06:02:31;103273.47;;;-1.62;100.00
4767;BME280;2397;53.576;9.746;2024-01-11T06:04:58;103261.34;;;-1.63;100.00
4767;BME280;2397;53.576;9.746;2024-01-11T06:07:25;103268.28;;;-1.65;100.00
4767;BME280;2397;53.576;9.746;2024-01-11T06:09:51;103266.56;;;-1.66;100.00
4767;BME280;2397;53.576;9.746;2024-01-11T06:12:17;103259.66;;;-1.64;100.00
4767;BME280;2397;53.576;9.746;2024-01-11T06:14:44;103255.38;;;-1.67;100.00
4767;BME280;2397;53.576;9.746;2024-01-11T06:17:11;103273.47;;;-1.62;100.00
4767;BME280;2397;53.576;9.746;2024-01-11T06:19:38;103272.56;;;-1.60;100.00
4767;BME280;2397;53.576;9.746;2024-01-11T06:22:04;103268.19;;;-1.56;100.00
4767;BME280;2397;53.576;9.746;2024-01-11T06:24:32;103267.31;;;-1.55;100.00
4767;BME280;2397;53.576;9.746;2024-01-11T06:26:58;103263.88;;;-1.54;100.00
4767;BME280;2397;53.576;9.746;2024-01-11T06:29:25;103253.53;;;-1.53;100.00
4767;BME280;2397;53.576;9.746;2024-01-11T06:31:52;103259.56;;;-1.55;100.00
4767;BME280;2397;53.576;9.746;2024-01-11T06:34:19;103261.31;;;-1.57;100.00
4767;BME280;2397;53.576;9.746;2024-01-11T06:36:46;103262.16;;;-1.55;100.00
4767;BME280;2397;53.576;9.746;2024-01-11T06:39:12;103268.16;;;-1.50;100.00
4767;BME280;2397;53.576;9.746;2024-01-11T06:41:39;103261.22;;;-1.48;100.00
4767;BME280;2397;53.576;9.746;2024-01-11T06:44:06;103262.91;;;-1.44;100.00
4767;BME280;2397;53.576;9.746;2024-01-11T06:46:32;103268.16;;;-1.47;100.00
4767;BME280;2397;53.576;9.746;2024-01-11T06:48:59;103260.28;;;-1.38;100.00
4767;BME280;2397;53.576;9.746;2024-01-11T06:51:26;103256.00;;;-1.42;100.00
4767;BME280;2397;53.576;9.746;2024-01-11T06:53:52;103260.22;;;-1.32;100.00
4767;BME280;2397;53.576;9.746;2024-01-11T06:56:20;103278.38;;;-1.34;100.00
4767;BME280;2397;53.576;9.746;2024-01-11T06:58:47;103268.81;;;-1.30;100.00
4767;BME280;2397;53.576;9.746;2024-01-11T07:01:14;103268.00;;;-1.32;100.00
4767;BME280;2397;53.576;9.746;2024-01-11T07:03:41;103270.59;;;-1.32;100.00
4767;BME280;2397;53.576;9.746;2024-01-11T07:06:08;103268.78;;;-1.24;100.00
4767;BME280;2397;53.576;9.746;2024-01-11T07:08:35;103271.38;;;-1.26;100.00
4767;BME280;2397;53.576;9.746;2024-01-11T07:11:01;103275.75;;;-1.31;100.00
4767;BME280;2397;53.576;9.746;2024-01-11T07:13:32;103272.31;;;-1.31;100.00
4767;BME280;2397;53.576;9.746;2024-01-11T07:15:59;103268.03;;;-1.35;100.00
4767;BME280;2397;53.576;9.746;2024-01-11T07:18:26;103278.31;;;-1.29;100.00
4767;BME280;2397;53.576;9.746;2024-01-11T07:20:53;103288.66;;;-1.29;100.00
4767;BME280;2397;53.576;9.746;2024-01-11T07:23:19;103302.44;;;-1.23;100.00
4767;BME280;2397;53.576;9.746;2024-01-11T07:25:46;103295.44;;;-1.15;100.00
4767;BME280;2397;53.576;9.746;2024-01-11T07:28:13;103293.75;;;-1.17;100.00
4767;BME280;2397;53.576;9.746;2024-01-11T07:30:40;103294.66;;;-1.21;100.00
4767;BME280;2397;53.576;9.746;2024-01-11T07:33:07;103287.69;;;-1.16;100.00
4767;BME280;2397;53.576;9.746;2024-01-11T07:35:36;103297.25;;;-1.21;100.00
4767;BME280;2397;53.576;9.746;2024-01-11T07:38:03;103287.72;;;-1.21;100.00
4767;BME280;2397;53.576;9.746;2024-01-11T07:40:30;103279.19;;;-1.29;100.00
4767;BME280;2397;53.576;9.746;2024-01-11T07:43:00;103286.97;;;-1.33;100.00
4767;BME280;2397;53.576;9.746;2024-01-11T07:45:27;103293.91;;;-1.32;100.00
4767;BME280;2397;53.576;9.746;2024-01-11T07:47:54;103297.25;;;-1.21;100.00
4767;BME280;2397;53.576;9.746;2024-01-11T07:50:21;103299.72;;;-1.11;100.00
4767;BME280;2397;53.576;9.746;2024-01-11T07:52:48;103308.28;;;-1.01;100.00
4767;BME280;2397;53.576;9.746;2024-01-11T07:55:14;103304.81;;;-1.02;100.00
4767;BME280;2397;53.576;9.746;2024-01-11T07:57:41;103304.00;;;-1.08;100.00
4767;BME280;2397;53.576;9.746;2024-01-11T08:00:08;103310.88;;;-1.04;100.00
4767;BME280;2397;53.576;9.746;2024-01-11T08:02:38;103315.09;;;-0.91;100.00
4767;BME280;2397;53.576;9.746;2024-01-11T08:05:05;103325.38;;;-0.85;100.00
4767;BME280;2397;53.576;9.746;2024-01-11T08:07:32;103328.06;;;-0.96;100.00
4767;BME280;2397;53.576;9.746;2024-01-11T08:09:58;103324.50;;;-0.81;100.00
4767;BME280;2397;53.576;9.746;2024-01-11T08:12:25;103320.16;;;-0.84;100.00
4767;BME280;2397;53.576;9.746;2024-01-11T08:14:52;103306.53;;;-1.01;100.00
4767;BME280;2397;53.576;9.746;2024-01-11T08:17:19;103303.97;;;-1.04;100.00
4767;BME280;2397;53.576;9.746;2024-01-11T08:19:45;103310.88;;;-1.04;100.00
4767;BME280;2397;53.576;9.746;2024-01-11T08:22:12;103308.22;;;-0.97;100.00
4767;BME280;2397;53.576;9.746;2024-01-11T08:24:38;103300.44;;;-0.95;100.00
4767;BME280;2397;53.576;9.746;2024-01-11T08:27:05;103294.41;;;-0.97;100.00
4767;BME280;2397;53.576;9.746;2024-01-11T08:29:32;103295.28;;;-0.98;100.00
4767;BME280;2397;53.576;9.746;2024-01-11T08:32:00;103281.47;;;-1.00;100.00
4767;BME280;2397;53.576;9.746;2024-01-11T08:34:49;103290.13;;;-1.01;100.00
4767;BME280;2397;53.576;9.746;2024-01-11T08:37:16;103291.81;;;-0.97;100.00
4767;BME280;2397;53.576;9.746;2024-01-11T08:39:43;103292.69;;;-0.98;100.00
4767;BME280;2397;53.576;9.746;2024-01-11T08:42:10;103289.19;;;-0.96;100.00
4767;BME280;2397;53.576;9.746;2024-01-11T08:44:41;103280.50;;;-0.92;100.00
4767;BME280;2397;53.576;9.746;2024-01-11T08:47:08;103268.28;;;-0.81;100.00
4767;BME280;2397;53.576;9.746;2024-01-11T08:49:37;103276.00;;;-0.75;100.00
4767;BME280;2397;53.576;9.746;2024-01-11T08:52:05;103275.00;;;-0.65;100.00
4767;BME280;2397;53.576;9.746;2024-01-11T08:54:33;103270.66;;;-0.63;100.00
4767;BME280;2397;53.576;9.746;2024-01-11T08:57:00;103261.00;;;-0.49;100.00
4767;BME280;2397;53.576;9.746;2024-01-11T08:59:27;103265.41;;;-0.55;100.00
4767;BME280;2397;53.576;9.746;2024-01-11T09:01:54;103274.16;;;-0.65;100.00
4767;BME280;2397;53.576;9.746;2024-01-11T09:04:36;103268.06;;;-0.63;100.00
4767;BME280;2397;53.576;9.746;2024-01-11T09:07:03;103269.88;;;-0.66;100.00
4767;BME280;2397;53.576;9.746;2024-01-11T09:09:29;103272.47;;;-0.66;100.00
4767;BME280;2397;53.576;9.746;2024-01-11T09:11:59;103269.97;;;-0.75;100.00
4767;BME280;2397;53.576;9.746;2024-01-11T09:14:26;103268.25;;;-0.78;100.00
4767;BME280;2397;53.576;9.746;2024-01-11T09:16:53;103271.72;;;-0.77;100.00
4767;BME280;2397;53.576;9.746;2024-01-11T09:19:21;103270.91;;;-0.82;100.00
4767;BME280;2397;53.576;9.746;2024-01-11T09:21:48;103262.28;;;-0.81;100.00
4767;BME280;2397;53.576;9.746;2024-01-11T09:24:14;103264.81;;;-0.78;100.00
4767;BME280;2397;53.576;9.746;2024-01-11T09:26:41;103252.59;;;-0.69;100.00
4767;BME280;2397;53.576;9.746;2024-01-11T09:29:08;103257.72;;;-0.66;100.00
4767;BME280;2397;53.576;9.746;2024-01-11T09:31:35;103266.44;;;-0.71;100.00
4767;BME280;2397;53.576;9.746;2024-01-11T09:34:02;103270.84;;;-0.78;100.00
4767;BME280;2397;53.576;9.746;2024-01-11T09:36:28;103270.81;;;-0.73;100.00
4767;BME280;2397;53.576;9.746;2024-01-11T09:38:55;103277.75;;;-0.77;100.00
4767;BME280;2397;53.576;9.746;2024-01-11T09:41:22;103278.63;;;-0.78;100.00
4767;BME280;2397;53.576;9.746;2024-01-11T09:43:53;103255.16;;;-0.67;100.00
4767;BME280;2397;53.576;9.746;2024-01-11T09:46:21;103252.56;;;-0.67;100.00
4767;BME280;2397;53.576;9.746;2024-01-11T09:48:50;103264.56;;;-0.59;100.00
4767;BME280;2397;53.576;9.746;2024-01-11T09:51:17;103262.00;;;-0.60;100.00
4767;BME280;2397;53.576;9.746;2024-01-11T09:53:44;103257.03;;;-0.78;100.00
4767;BME280;2397;53.576;9.746;2024-01-11T09:56:11;103244.81;;;-0.70;100.00
4767;BME280;2397;53.576;9.746;2024-01-11T09:58:40;103255.16;;;-0.67;100.00
4767;BME280;2397;53.576;9.746;2024-01-11T10:01:11;103258.63;;;-0.68;100.00
4767;BME280;2397;53.576;9.746;2024-01-11T10:03:39;103251.56;;;-0.54;100.00
4767;BME280;2397;53.576;9.746;2024-01-11T10:06:08;103245.38;;;-0.44;100.00
4767;BME280;2397;53.576;9.746;2024-01-11T10:08:36;103248.00;;;-0.47;100.00
4767;BME280;2397;53.576;9.746;2024-01-11T10:11:02;103239.28;;;-0.43;100.00
4767;BME280;2397;53.576;9.746;2024-01-11T10:13:31;103246.31;;;-0.51;100.00
4767;BME280;2397;53.576;9.746;2024-01-11T10:16:15;103247.91;;;-0.41;100.00
4767;BME280;2397;53.576;9.746;2024-01-11T10:18:42;103246.16;;;-0.39;100.00
4767;BME280;2397;53.576;9.746;2024-01-11T10:21:09;103239.19;;;-0.37;100.00
4767;BME280;2397;53.576;9.746;2024-01-11T10:23:36;103235.56;;;-0.24;100.00
4767;BME280;2397;53.576;9.746;2024-01-11T10:26:03;103230.22;;;-0.15;100.00
4767;BME280;2397;53.576;9.746;2024-01-11T10:28:30;103226.81;;;-0.17;100.00
4767;BME280;2397;53.576;9.746;2024-01-11T10:30:56;103232.97;;;-0.26;100.00
4767;BME280;2397;53.576;9.746;2024-01-11T10:33:23;103220.91;;;-0.27;100.00
4767;BME280;2397;53.576;9.746;2024-01-11T10:35:50;103225.28;;;-0.32;100.00
4767;BME280;2397;53.576;9.746;2024-01-11T10:38:17;103230.31;;;-0.20;100.00
4767;BME280;2397;53.576;9.746;2024-01-11T10:40:44;103232.97;;;-0.24;100.00
4767;BME280;2397;53.576;9.746;2024-01-11T10:43:12;103238.09;;;-0.20;100.00
4767;BME280;2397;53.576;9.746;2024-01-11T10:45:42;103238.91;;;-0.16;100.00
4767;BME280;2397;53.576;9.746;2024-01-11T10:48:14;103235.28;;;-0.06;100.00
4767;BME280;2397;53.576;9.746;2024-01-11T10:50:46;103234.41;;;-0.07;100.00
4767;BME280;2397;53.576;9.746;2024-01-11T10:53:51;103243.97;;;-0.07;100.00
4767;BME280;2397;53.576;9.746;2024-01-11T10:56:19;103254.03;;;0.11;100.00
4767;BME280;2397;53.576;9.746;2024-01-11T10:58:46;103264.38;;;0.14;100.00
4767;BME280;2397;53.576;9.746;2024-01-11T11:01:14;103272.19;;;0.14;100.00
4767;BME280;2397;53.576;9.746;2024-01-11T11:03:43;103271.91;;;0.31;100.00
4767;BME280;2397;53.576;9.746;2024-01-11T11:06:11;103277.09;;;0.31;100.00
4767;BME280;2397;53.576;9.746;2024-01-11T11:08:39;103277.97;;;0.31;100.00
4767;BME280;2397;53.576;9.746;2024-01-11T11:11:06;103265.66;;;0.44;100.00
4767;BME280;2397;53.576;9.746;2024-01-11T11:13:34;103267.50;;;0.37;100.00
4767;BME280;2397;53.576;9.746;2024-01-11T11:16:01;103268.53;;;0.26;100.00
4767;BME280;2397;53.576;9.746;2024-01-11T11:18:31;103265.06;;;0.27;100.00
4767;BME280;2397;53.576;9.746;2024-01-11T11:21:00;103270.84;;;0.44;100.00
4767;BME280;2397;53.576;9.746;2024-01-11T11:23:26;103267.28;;;0.49;100.00
4767;BME280;2397;53.576;9.746;2024-01-11T11:25:54;103248.91;;;0.60;100.00
4767;BME280;2397;53.576;9.746;2024-01-11T11:28:25;103248.00;;;0.61;100.00
4767;BME280;2397;53.576;9.746;2024-01-11T11:30:52;103238.72;;;0.49;100.00
4767;BME280;2397;53.576;9.746;2024-01-11T11:33:24;103229.94;;;0.55;100.00
4767;BME280;2397;53.576;9.746;2024-01-11T11:35:57;103237.59;;;0.62;100.00
4767;BME280;2397;53.576;9.746;2024-01-11T11:38:26;103233.44;;;0.54;100.00
4767;BME280;2397;53.576;9.746;2024-01-11T11:40:55;103236.94;;;0.50;100.00
4767;BME280;2397;53.576;9.746;2024-01-11T11:43:22;103235.97;;;0.55;100.00
4767;BME280;2397;53.576;9.746;2024-01-11T11:45:50;103230.75;;;0.58;100.00
4767;BME280;2397;53.576;9.746;2024-01-11T11:51:10;103220.44;;;0.54;100.00
4767;BME280;2397;53.576;9.746;2024-01-11T11:53:40;103220.53;;;0.49;100.00
4767;BME280;2397;53.576;9.746;2024-01-11T11:56:09;103225.88;;;0.39;100.00
4767;BME280;2397;53.576;9.746;2024-01-11T11:58:37;103217.91;;;0.51;100.00
4767;BME280;2397;53.576;9.746;2024-01-11T12:01:05;103217.06;;;0.49;100.00
4767;BME280;2397;53.576;9.746;2024-01-11T12:03:34;103222.00;;;0.62;100.00
4767;BME280;2397;53.576;9.746;2024-01-11T12:06:10;103221.81;;;0.74;100.00
4767;BME280;2397;53.576;9.746;2024-01-11T12:08:37;103218.47;;;0.66;100.00
4767;BME280;2397;53.576;9.746;2024-01-11T12:11:07;103216.78;;;0.64;100.00
4767;BME280;2397;53.576;9.746;2024-01-11T12:13:35;103220.28;;;0.61;100.00
4767;BME280;2397;53.576;9.746;2024-01-11T12:16:02;103204.81;;;0.55;100.00
4767;BME280;2397;53.576;9.746;2024-01-11T12:18:29;103204.88;;;0.54;100.00
4767;BME280;2397;53.576;9.746;2024-01-11T12:20:56;103206.41;;;0.62;100.00
4767;BME280;2397;53.576;9.746;2024-01-11T12:23:23;103197.53;;;0.74;100.00
4767;BME280;2397;53.576;9.746;2024-01-11T12:25:49;103206.31;;;0.68;100.00
4767;BME280;2397;53.576;9.746;2024-01-11T12:28:16;103201.22;;;0.62;100.00
4767;BME280;2397;53.576;9.746;2024-01-11T12:30:44;103206.38;;;0.65;100.00
4767;BME280;2397;53.576;9.746;2024-01-11T12:33:11;103187.28;;;0.66;100.00
4767;BME280;2397;53.576;9.746;2024-01-11T12:35:39;103182.94;;;0.67;100.00
4767;BME280;2397;53.576;9.746;2024-01-11T12:38:06;103179.47;;;0.68;100.00
4767;BME280;2397;53.576;9.746;2024-01-11T12:40:34;103175.03;;;0.74;100.00
4767;BME280;2397;53.576;9.746;2024-01-11T12:43:04;103176.53;;;0.84;100.00
4767;BME280;2397;53.576;9.746;2024-01-11T12:45:31;103177.09;;;1.00;100.00
4767;BME280;2397;53.576;9.746;2024-01-11T12:48:02;103175.91;;;1.14;100.00
4767;BME280;2397;53.576;9.746;2024-01-11T12:50:30;103182.19;;;1.04;100.00
4767;BME280;2397;53.576;9.746;2024-01-11T12:53:10;103177.88;;;1.03;100.00
4767;BME280;2397;53.576;9.746;2024-01-11T12:55:47;103164.81;;;1.06;100.00
4767;BME280;2397;53.576;9.746;2024-01-11T12:58:23;103165.38;;;1.20;100.00
4767;BME280;2397;53.576;9.746;2024-01-11T13:00:52;103166.88;;;1.32;100.00
4767;BME280;2397;53.576;9.746;2024-01-11T13:03:19;103174.56;;;1.36;100.00
4767;BME280;2397;53.576;9.746;2024-01-11T13:05:47;103171.69;;;1.48;100.00
4767;BME280;2397;53.576;9.746;2024-01-11T13:08:14;103173.31;;;1.54;100.00